Weather observations for the past three days for
Bozeman, Gallatin Field
Metric (Imperial)
Date Time (mdt) Wind (kph) Vis. (km) Weather Sky Cond. Temperature (ºC) Relative Humidity Wind Chill (°C) Heat Index (°C) Pressure Precipitation (cm)
Air Dwpt 6 hour altimeter (cm) sea level (mb) 1 hr 3 hr 6 hr
Max. Min.
06 04:56 Calm 16.09 Fair CLR 10.6 7.2 80% 76.33 1014.5
06 03:56 SW 6 16.09 Fair CLR 10.6 7.2 80% 76.25 1013.6
06 02:56 Calm 16.09 Fair CLR 11.7 7.2 74% 76.28 1014.0
06 01:56 W 13 16.09 Fair CLR 13.3 7.2 67% 76.3 1014.2
06 00:56 W 15 16.09 Fair CLR 14.4 7.2 62% 76.3 1014.2
05 23:56 W 17 16.09 Fair CLR 15 7.2 23.9 13.3 60% 76.3 1014.4
05 22:56 NW 11 16.09 Fair CLR 15 7.2 60% 76.3 1014.6
05 21:56 W 7 16.09 Fair CLR 16.7 8.3 58% 76.28 1014.5
05 20:56 E 11 16.09 Fair CLR 21.1 7.2 41% 76.23 1013.5
05 19:56 Calm 16.09 Fair CLR 20.6 9.4 49% 76.23 1013.3
05 18:56 W 7 16.09 Fair CLR 23.9 8.9 39% 25 76.23 1013.1
05 17:56 Calm 16.09 Fair CLR 23.9 7.8 24.4 17.2 36% 25 76.2 1012.9
05 16:56 Calm 16.09 A Few Clouds FEW120 23.3 7.2 36% 76.23 1013.7
05 14:56 N 13 16.09 Fair CLR 22.2 7.8 40% 76.33 1014.5
05 13:56 Vrbl 6 16.09 Mostly Cloudy BKN110 20 7.2 44% 76.4 1015.8
05 11:56 N 6 16.09 Fair CLR 17.8 7.2 17.8 9.4 50% 76.5 1017.6
05 10:56 Calm 16.09 Fair CLR 15.6 7.2 58% 76.53 1018.1
05 09:56 SW 11 16.09 Fair CLR 13.9 7.2 64% 76.53 1018.1
05 08:56 S 13 16.09 Fair CLR 11.7 7.2 74% 76.53 1018.2
05 07:56 S 13 16.09 Fair CLR 11.1 6.1 72% 76.5 1016.9
05 06:56 SE 11 16.09 Fair CLR 10 6.1 77% 9 76.43 1015.8
05 05:56 S 11 16.09 Fair CLR 10.6 6.7 13.3 7.8 77% 76.38 1014.9
05 04:56 Calm 16.09 Fair CLR 7.8 6.1 89% 76.35 1014.9
05 03:56 S 15 16.09 Fair CLR 12.2 7.8 75% 76.28 1013.7
05 02:56 S 13 16.09 Fair CLR 12.8 7.8 72% 76.3 1013.8
05 01:56 SW 22 16.09 Fair CLR 13.3 7.2 67% 76.15 1011.8
05 00:56 S 13 16.09 Fair CLR 12.8 5 59% 76.12 1011.4
04 23:56 Calm 16.09 Fair CLR 11.7 6.1 26.1 10.6 69% 76.1 1011.3
04 22:56 Calm 16.09 Fair CLR 14.4 5 53% 76.1 1010.9
04 21:56 S 9 16.09 Fair CLR 16.1 5.6 50% 76.1 1011.3
04 20:56 E 9 16.09 Fair CLR 17.2 4.4 43% 76.1 1011.4
04 19:56 SW 9 16.09 Fair CLR 23.3 1.1 23% 76.02 1010.2
04 18:56 NW 6 16.09 A Few Clouds FEW120 25.6 1.1 20% 25 76 1009.5
04 17:56 E 7 16.09 Mostly Cloudy BKN110 25.6 2.8 26.7 22.8 23% 25 75.97 1009.4
04 16:56 Vrbl 9 16.09 A Few Clouds FEW120 26.1 3.9 24% 26 75.95 1009.0
04 15:56 NE 7 16.09 Mostly Cloudy BKN110 23.9 5.6 31% 25 75.95 1009.0
04 14:56 N 13 16.09 Mostly Cloudy BKN110 23.9 5.6 31% 25 75.95 1008.7
04 13:56 N 9 16.09 Mostly Cloudy BKN110 23.9 5 29% 25 75.92 1007.8
04 12:56 NE 13 16.09 Fair CLR 24.4 3.3 25% 25 75.92 1008.2
04 11:56 NW 19 G 35 16.09 Fair CLR 22.8 2.8 23.9 10 27% 75.92 1008.6
04 10:56 W 33 G 48 16.09 Partly Cloudy and Breezy SCT120 23.3 2.8 26% 75.87 1007.3
04 09:56 NE 6 16.09 Fair CLR 20 5.6 39% 75.82 1007.0
04 08:56 W 9 16.09 Fair CLR 16.1 3.9 44% 75.77 1006.6
04 07:56 NW 7 16.09 Fair CLR 12.8 5 59% 75.69 1005.7
04 06:56 E 6 11.27 Fair CLR 11.7 5.6 66% 75.62 1004.9
04 05:56 Calm 16.09 Fair CLR 10 5 21.1 10 71% 75.57 1004.4
04 04:56 NW 9 16.09 Fair CLR 11.7 5 64% 75.57 1003.9
04 03:56 NW 13 16.09 Fair CLR 13.3 3.3 51% 75.57 1003.8
04 02:56 NW 11 16.09 Fair CLR 13.3 4.4 55% 75.59 1004.3
04 01:56 SE 24 16.09 Fair CLR 20.6 0 25% 75.64 1004.0
04 00:56 S 17 16.09 Fair CLR 16.7 2.8 40% 75.72 1005.2
03 23:56 SE 17 16.09 Fair CLR 14.4 5.6 23.9 14.4 56% 75.72 1006.2
03 22:56 Calm 16.09 Fair CLR 17.2 4.4 43% 75.77 1006.6
03 21:56 E 6 16.09 Mostly Cloudy BKN120 17.2 5 45% 75.82 1007.6
03 20:56 SE 7 16.09 Fair CLR 19.4 3.9 36% 75.87 1008.1
03 19:56 S 9 16.09 Mostly Cloudy BKN120 21.7 2.8 29% 75.87 1007.8
03 18:56 SW 17 16.09 Overcast OVC100 22.8 1.7 25% 75.84 1007.4
03 17:56 SE 11 16.09 Partly Cloudy SCT100 SCT120 23.3 2.8 24.4 21.1 26% 75.82 1006.9
03 16:56 SE 19 16.09 Partly Cloudy SCT090 SCT110 23.9 2.2 24% 25 75.82 1007.8
03 15:56 SW 26 G 44 16.09 Overcast OVC100 23.9 3.3 26% 25 75.82 1007.8
03 14:56 S 24 G 50 16.09 Partly Cloudy FEW090 SCT120 23.3 2.8 26% 75.84 1007.8
03 13:56 W 13 G 28 16.09 Fair CLR 23.3 2.2 25% 75.84 1008.0
03 12:56 W 22 G 39 16.09 A Few Clouds FEW095 23.9 2.8 25% 25 75.9 1008.4
03 11:56 Calm 16.09 A Few Clouds FEW110 21.1 1.7 21.1 14.4 28% 75.95 1010.0
03 10:56 Calm 16.09 Fair CLR 20 0.6 27% 75.97 1010.1
03 09:56 S 15 14.48 Fair CLR 18.3 1.1 32% 75.97 1010.0
03 08:56 S 13 16.09 Mostly Cloudy BKN100 17.2 2.2 37% 76 1010.0
03 07:56 S 15 16.09 Mostly Cloudy BKN110 15.6 1.7 39% 75.97 1010.1
03 06:56 SW 13 16.09 A Few Clouds FEW120 15 -0.6 35% 75.92 1008.7
03 05:56 SW 22 G 33 16.09 Fair CLR 15.6 -0.6 15.6 8.3 33% 75.87 1007.7
Date Time (mdt) Wind (kph) Vis. (km) Weather Sky Cond. Air Dwpt Max. Min. Relative Humidity Wind Chill (°C) Heat Index (°C) altimeter (cm) sea level (mb) 1 hr 3 hr 6 hr
6 hour
Temperature (ºC) Pressure Precipitation (cm)